Time;durP1;ratioP1;P1;durP2;ratioP2;P2;SDS_P1;SDS_P2;PMS_P1;PMS_P2;Temp;Humidity;BMP_temperature;BMP_pressure;BME280_temperature;BME280_humidity;BME280_pressure;Samples;Min_cycle;Max_cycle;Signal;HPM_P1;HPM_P2
2021/12/22 00:02:03;;;;;;;56.20;33.47;;;1.30;99.90;;;;;;5035267;28;20053;-87
2021/12/22 00:04:31;;;;;;;66.60;34.38;;;1.20;99.90;;;;;;5034673;28;20393;-87
2021/12/22 00:06:57;;;;;;;58.83;33.88;;;1.20;99.90;;;;;;5032211;28;20071;-87
2021/12/22 00:09:23;;;;;;;57.75;33.08;;;1.20;99.90;;;;;;5035527;28;20513;-87
2021/12/22 00:11:49;;;;;;;54.45;30.95;;;1.10;99.90;;;;;;5035511;28;20393;-88
2021/12/22 00:14:15;;;;;;;54.78;31.63;;;1.60;99.90;;;;;;5017375;28;20398;-87
2021/12/22 00:16:41;;;;;;;58.70;32.13;;;1.60;99.90;;;;;;5015895;28;20028;-88
2021/12/22 00:19:07;;;;;;;59.15;32.78;;;1.00;99.90;;;;;;5032017;28;20025;-87
2021/12/22 00:21:32;;;;;;;55.85;31.85;;;1.00;99.90;;;;;;5033553;28;20398;-87
2021/12/22 00:23:58;;;;;;;67.47;34.28;;;1.10;99.90;;;;;;5034463;28;20029;-87
2021/12/22 00:26:23;;;;;;;59.22;33.78;;;1.00;99.90;;;;;;5034929;28;20036;-87
2021/12/22 00:28:50;;;;;;;66.45;35.22;;;1.10;99.90;;;;;;5035016;28;20037;-87
2021/12/22 00:31:19;;;;;;;68.63;35.95;;;1.10;99.90;;;;;;5016369;28;20031;-87
2021/12/22 00:33:50;;;;;;;61.17;34.00;;;1.50;99.90;;;;;;5031265;28;20029;-87
2021/12/22 00:36:19;;;;;;;62.28;34.75;;;1.50;99.90;;;;;;5007415;28;20026;-88
2021/12/22 00:38:45;;;;;;;62.17;33.38;;;1.00;99.90;;;;;;5015782;28;20029;-87
2021/12/22 00:41:11;;;;;;;60.25;33.22;;;1.10;99.90;;;;;;5034503;28;20405;-87
2021/12/22 00:43:37;;;;;;;62.25;33.70;;;1.80;99.90;;;;;;5035009;28;20029;-87
2021/12/22 00:46:04;;;;;;;63.65;34.50;;;1.10;99.90;;;;;;5032306;28;20104;-87
2021/12/22 00:48:30;;;;;;;58.92;34.30;;;0.90;99.90;;;;;;5033217;28;20477;-88
2021/12/22 00:50:56;;;;;;;57.05;34.25;;;0.70;99.90;;;;;;5036358;28;20056;-87
2021/12/22 00:53:22;;;;;;;61.08;34.70;;;0.50;99.90;;;;;;5016795;28;20069;-87
2021/12/22 00:55:48;;;;;;;60.67;34.40;;;0.60;99.90;;;;;;5034119;28;20021;-88
2021/12/22 00:58:14;;;;;;;61.22;33.40;;;0.50;99.90;;;;;;5032063;28;20489;-87
2021/12/22 01:00:40;;;;;;;61.42;34.38;;;0.60;99.90;;;;;;5030926;28;20042;-87
2021/12/22 01:03:06;;;;;;;63.97;35.15;;;0.70;99.90;;;;;;5035154;28;20025;-87
2021/12/22 01:05:32;;;;;;;62.30;34.15;;;0.80;99.90;;;;;;5016676;28;20416;-88
2021/12/22 01:07:58;;;;;;;66.97;36.45;;;0.80;99.90;;;;;;5034579;28;20029;-88
2021/12/22 01:10:26;;;;;;;61.17;34.42;;;0.70;99.90;;;;;;5034104;28;20032;-87
2021/12/22 01:12:54;;;;;;;57.55;32.88;;;0.60;99.90;;;;;;5012391;28;20022;-87
2021/12/22 01:15:20;;;;;;;59.55;33.63;;;1.40;99.90;;;;;;5017132;28;20220;-87
2021/12/22 01:17:49;;;;;;;55.42;31.80;;;0.70;99.90;;;;;;5034329;28;20028;-87
2021/12/22 01:20:24;;;;;;;56.85;32.05;;;0.80;99.90;;;;;;5034278;28;20035;-87
2021/12/22 01:22:50;;;;;;;58.03;33.42;;;0.80;99.90;;;;;;5016440;28;20036;-87
2021/12/22 01:25:21;;;;;;;55.92;32.83;;;0.80;99.90;;;;;;5033143;28;20389;-87
2021/12/22 01:27:47;;;;;;;57.28;33.40;;;0.80;99.90;;;;;;5029862;28;20080;-87
2021/12/22 01:30:23;;;;;;;58.50;32.85;;;0.80;99.90;;;;;;5036112;28;20025;-87
2021/12/22 01:32:52;;;;;;;59.55;33.00;;;0.80;99.90;;;;;;5033727;28;20436;-87
2021/12/22 01:35:20;;;;;;;59.22;32.60;;;0.70;99.90;;;;;;5016288;28;20481;-87
2021/12/22 01:37:47;;;;;;;57.65;30.90;;;0.80;99.90;;;;;;5032653;28;20040;-87
2021/12/22 01:40:14;;;;;;;54.85;32.78;;;1.40;99.90;;;;;;5030993;28;20086;-87
2021/12/22 01:42:41;;;;;;;58.97;33.28;;;0.70;99.90;;;;;;5013539;28;20074;-87
2021/12/22 01:50:37;;;;;;;71.43;39.47;;;0.70;99.90;;;;;;5033999;28;20040;-87
2021/12/22 01:53:22;;;;;;;65.63;37.00;;;0.60;99.90;;;;;;5034129;28;20448;-87
2021/12/22 01:56:28;;;;;;;68.40;39.80;;;0.50;99.90;;;;;;5033930;28;20021;-87
2021/12/22 01:58:57;;;;;;;76.22;42.83;;;0.70;99.90;;;;;;5020477;28;20037;-87
2021/12/22 02:01:24;;;;;;;78.63;42.03;;;0.70;99.90;;;;;;5015983;28;20543;-87
2021/12/22 02:03:51;;;;;;;75.35;41.05;;;0.70;99.90;;;;;;5029460;28;20490;-87
2021/12/22 02:06:18;;;;;;;80.78;43.55;;;0.80;99.90;;;;;;5025560;28;20032;-87
2021/12/22 02:08:45;;;;;;;87.95;43.50;;;0.80;99.90;;;;;;5015967;28;20076;-87
2021/12/22 02:11:13;;;;;;;77.85;42.78;;;0.80;99.90;;;;;;5033871;28;20025;-87
2021/12/22 02:13:42;;;;;;;80.03;42.58;;;0.90;99.90;;;;;;5014826;28;20036;-87
2021/12/22 02:16:13;;;;;;;80.32;42.55;;;0.90;99.90;;;;;;5013089;28;20034;-87
2021/12/22 02:18:47;;;;;;;77.75;42.05;;;0.90;99.90;;;;;;5030603;28;20083;-87
2021/12/22 02:21:13;;;;;;;73.75;40.95;;;0.90;99.90;;;;;;5035402;28;20082;-87
2021/12/22 02:23:40;;;;;;;74.35;40.25;;;0.90;99.90;;;;;;5016031;28;20025;-87
2021/12/22 02:26:14;;;;;;;78.70;41.45;;;0.90;99.90;;;;;;5033306;28;20623;-87
2021/12/22 02:28:44;;;;;;;74.78;39.72;;;0.80;99.90;;;;;;5036611;28;20040;-87
2021/12/22 02:31:14;;;;;;;70.28;37.92;;;0.80;99.90;;;;;;5018103;28;20038;-87
2021/12/22 02:33:42;;;;;;;67.57;35.97;;;1.40;99.90;;;;;;5016323;28;20022;-88
2021/12/22 02:36:11;;;;;;;66.50;36.85;;;0.70;99.90;;;;;;5038992;28;20034;-87
2021/12/22 02:38:44;;;;;;;68.60;37.33;;;1.40;99.90;;;;;;5036613;28;20091;-87
2021/12/22 02:41:12;;;;;;;66.03;35.67;;;0.60;99.90;;;;;;5036980;28;20014;-87
2021/12/22 02:43:45;;;;;;;65.40;36.05;;;0.50;99.90;;;;;;5036913;28;20029;-87
2021/12/22 02:46:12;;;;;;;66.18;37.40;;;0.50;99.90;;;;;;5035250;28;20025;-87
2021/12/22 02:48:38;;;;;;;69.60;37.25;;;1.10;99.90;;;;;;5034519;28;20108;-87
2021/12/22 02:51:05;;;;;;;71.68;37.83;;;0.60;99.90;;;;;;5037639;28;20029;-87
2021/12/22 02:54:04;;;;;;;69.72;38.30;;;0.70;99.90;;;;;;5036286;28;20034;-87
2021/12/22 02:59:02;;;;;;;68.90;36.47;;;0.60;99.90;;;;;;5035511;28;20029;-88
2021/12/22 03:04:04;;;;;;;65.65;35.70;;;0.60;99.90;;;;;;5033551;28;20056;-87
2021/12/22 03:06:37;;;;;;;70.25;36.28;;;1.10;99.90;;;;;;5035098;28;20037;-87
2021/12/22 03:09:19;;;;;;;66.82;36.75;;;0.50;99.90;;;;;;5036629;28;20095;-87
2021/12/22 03:11:46;;;;;;;65.43;35.65;;;0.50;99.90;;;;;;5017665;28;20037;-87
2021/12/22 03:14:13;;;;;;;66.93;36.15;;;0.60;99.90;;;;;;5036172;28;20025;-87
2021/12/22 03:16:42;;;;;;;72.63;37.00;;;0.60;99.90;;;;;;5036356;28;20024;-88
2021/12/22 03:19:08;;;;;;;68.95;37.28;;;0.60;99.90;;;;;;5016635;28;20032;-87
2021/12/22 03:21:34;;;;;;;88.80;37.80;;;0.60;99.90;;;;;;5033768;28;20029;-87
2021/12/22 03:23:59;;;;;;;70.25;37.45;;;0.60;99.90;;;;;;5037832;28;20094;-87
2021/12/22 03:26:26;;;;;;;73.60;36.28;;;0.40;99.90;;;;;;5018704;28;20045;-88
2021/12/22 03:28:51;;;;;;;72.10;36.85;;;1.20;99.90;;;;;;5018824;28;20088;-87
2021/12/22 03:31:17;;;;;;;222.32;39.63;;;0.50;99.90;;;;;;5035328;28;20021;-88
2021/12/22 03:33:44;;;;;;;169.98;37.38;;;0.60;99.90;;;;;;5032535;28;20034;-88
2021/12/22 03:36:10;;;;;;;86.88;34.35;;;0.40;99.90;;;;;;5036685;28;20023;-87
2021/12/22 03:38:37;;;;;;;189.40;38.65;;;0.50;99.90;;;;;;5033602;28;20041;-87
2021/12/22 03:41:05;;;;;;;129.18;37.25;;;0.50;99.90;;;;;;5035633;28;20033;-87
2021/12/22 03:43:31;;;;;;;251.45;39.00;;;0.60;99.90;;;;;;5017945;28;20036;-87
2021/12/22 03:45:57;;;;;;;241.57;40.05;;;0.50;99.90;;;;;;5032156;28;20044;-87
2021/12/22 03:48:24;;;;;;;249.45;39.20;;;0.50;99.90;;;;;;5036283;28;20432;-87
2021/12/22 03:50:51;;;;;;;153.98;37.65;;;0.50;99.90;;;;;;5034754;28;20481;-87
2021/12/22 03:53:17;;;;;;;109.10;37.60;;;0.40;99.90;;;;;;5035535;28;20111;-87
2021/12/22 03:55:42;;;;;;;88.28;37.85;;;0.70;99.90;;;;;;5035533;28;20033;-87
2021/12/22 03:58:08;;;;;;;196.98;39.67;;;0.50;99.90;;;;;;5033535;28;20033;-87
2021/12/22 04:00:36;;;;;;;94.03;37.92;;;0.40;99.90;;;;;;5033117;28;20459;-87
2021/12/22 04:03:03;;;;;;;92.53;37.53;;;0.50;99.90;;;;;;5017700;28;20026;-88
2021/12/22 04:05:29;;;;;;;91.63;38.67;;;0.40;99.90;;;;;;5017392;28;20401;-88
2021/12/22 04:07:55;;;;;;;143.40;38.50;;;0.50;99.90;;;;;;5035460;28;20032;-87
2021/12/22 04:10:22;;;;;;;282.00;43.92;;;1.00;99.90;;;;;;5035198;28;20013;-87
2021/12/22 04:12:53;;;;;;;85.85;39.92;;;0.40;99.90;;;;;;5014027;28;20093;-87
2021/12/22 04:15:21;;;;;;;144.98;40.15;;;0.50;99.90;;;;;;5027075;28;20362;-87
2021/12/22 04:17:47;;;;;;;210.80;40.80;;;0.30;99.90;;;;;;5035490;28;20166;-87
2021/12/22 04:20:13;;;;;;;132.80;39.15;;;0.70;99.90;;;;;;5034882;28;20120;-88
2021/12/22 04:22:39;;;;;;;320.95;43.65;;;0.30;99.90;;;;;;5017559;28;20028;-87
2021/12/22 04:25:07;;;;;;;267.38;41.78;;;0.40;99.90;;;;;;5032718;28;20032;-87
2021/12/22 04:27:33;;;;;;;212.82;41.28;;;0.30;99.90;;;;;;5033064;28;20041;-87
2021/12/22 04:29:59;;;;;;;114.35;38.47;;;0.50;99.90;;;;;;5036409;28;20036;-87
2021/12/22 04:32:25;;;;;;;212.75;42.03;;;0.50;99.90;;;;;;5034982;28;20022;-87
2021/12/22 04:34:50;;;;;;;160.23;38.47;;;0.50;99.90;;;;;;5035337;28;20029;-87
2021/12/22 04:37:16;;;;;;;207.57;39.47;;;0.40;99.90;;;;;;5034502;28;20028;-87
2021/12/22 04:39:41;;;;;;;168.23;40.70;;;0.40;99.90;;;;;;5031400;28;20053;-87
2021/12/22 04:42:07;;;;;;;152.68;39.30;;;0.50;99.90;;;;;;5037111;28;20032;-88
2021/12/22 04:44:33;;;;;;;133.52;37.78;;;0.50;99.90;;;;;;5034751;28;20076;-87
2021/12/22 04:46:59;;;;;;;83.45;38.67;;;0.50;99.90;;;;;;5033934;28;20034;-87
2021/12/22 04:49:25;;;;;;;100.25;38.05;;;0.50;99.90;;;;;;5015523;28;20476;-87
2021/12/22 04:51:52;;;;;;;136.65;41.33;;;0.50;99.90;;;;;;5029368;28;20120;-87
2021/12/22 04:54:31;;;;;;;93.40;38.00;;;0.70;99.90;;;;;;5036372;28;20021;-87
2021/12/22 04:56:57;;;;;;;81.50;37.85;;;0.30;99.90;;;;;;5036041;28;20456;-87
2021/12/22 04:59:25;;;;;;;93.43;37.58;;;0.40;99.90;;;;;;5034427;28;20025;-88
2021/12/22 05:01:51;;;;;;;86.57;37.55;;;0.40;99.90;;;;;;5034375;28;20041;-87
2021/12/22 05:04:17;;;;;;;94.72;37.42;;;0.40;99.90;;;;;;5033761;28;20032;-87
2021/12/22 05:06:43;;;;;;;102.60;40.30;;;0.50;99.90;;;;;;5030531;28;20029;-87
2021/12/22 05:09:08;;;;;;;102.95;39.13;;;0.50;99.90;;;;;;5037065;28;20036;-87
2021/12/22 05:11:35;;;;;;;87.22;38.05;;;0.50;99.90;;;;;;5034721;28;20516;-87
2021/12/22 05:14:03;;;;;;;98.85;36.10;;;0.40;99.90;;;;;;5034209;28;20120;-87
2021/12/22 05:16:29;;;;;;;94.30;38.67;;;0.40;99.90;;;;;;5033921;28;20519;-87
2021/12/22 05:19:10;;;;;;;95.03;37.08;;;0.40;99.90;;;;;;5030624;28;20025;-86
2021/12/22 05:21:36;;;;;;;77.55;37.13;;;0.50;99.90;;;;;;5013684;28;20033;-87
2021/12/22 05:24:02;;;;;;;89.70;37.60;;;1.10;99.90;;;;;;5018945;28;20022;-86
2021/12/22 05:26:28;;;;;;;91.00;38.42;;;0.40;99.90;;;;;;5034043;28;20397;-88
2021/12/22 05:28:57;;;;;;;83.68;38.95;;;0.40;99.90;;;;;;5034097;28;20057;-89
2021/12/22 05:31:23;;;;;;;84.93;38.20;;;0.50;99.90;;;;;;5032994;28;20025;-89
2021/12/22 05:33:50;;;;;;;78.35;38.00;;;0.30;99.90;;;;;;5028559;28;20120;-89
2021/12/22 05:36:15;;;;;;;81.45;37.58;;;0.30;99.90;;;;;;5025277;28;20423;-88
2021/12/22 05:38:41;;;;;;;74.28;36.40;;;0.30;99.90;;;;;;5017219;28;20532;-89
2021/12/22 05:41:07;;;;;;;74.88;36.88;;;0.10;99.90;;;;;;5015242;28;20040;-89
2021/12/22 05:43:33;;;;;;;74.63;37.25;;;0.10;99.90;;;;;;5032706;28;20044;-89
2021/12/22 05:45:59;;;;;;;78.15;36.63;;;0.20;99.90;;;;;;5013274;28;20029;-88
2021/12/22 05:48:24;;;;;;;77.78;39.97;;;0.20;99.90;;;;;;5017394;28;20103;-89
2021/12/22 05:50:52;;;;;;;82.60;37.30;;;0.20;99.90;;;;;;5034790;28;20401;-88
2021/12/22 05:53:18;;;;;;;78.72;36.70;;;0.00;99.90;;;;;;5034389;28;20033;-88
2021/12/22 05:55:44;;;;;;;84.63;37.85;;;0.00;99.90;;;;;;5033821;28;20340;-88
2021/12/22 05:58:10;;;;;;;82.35;35.97;;;-0.10;99.90;;;;;;5014519;28;20026;-89
2021/12/22 06:00:36;;;;;;;78.75;38.08;;;-0.20;99.90;;;;;;5031078;28;20030;-89
2021/12/22 06:03:02;;;;;;;79.25;38.10;;;-0.20;99.90;;;;;;5038319;28;20577;-88
2021/12/22 06:05:28;;;;;;;75.95;36.13;;;-0.30;99.90;;;;;;5037798;28;20033;-86
2021/12/22 06:07:54;;;;;;;74.07;35.67;;;-0.20;99.90;;;;;;5037904;28;20033;-86
2021/12/22 06:10:19;;;;;;;77.55;36.40;;;-0.20;99.90;;;;;;5017996;28;20021;-86
2021/12/22 06:12:45;;;;;;;78.40;37.65;;;-0.30;99.90;;;;;;5032508;28;20572;-86
2021/12/22 06:15:11;;;;;;;87.38;40.03;;;-0.20;99.90;;;;;;5038360;28;20041;-86
2021/12/22 06:17:36;;;;;;;87.55;38.10;;;-0.20;99.90;;;;;;5037807;28;20033;-86
2021/12/22 06:20:04;;;;;;;80.75;35.75;;;-0.10;99.90;;;;;;5037321;28;20033;-86
2021/12/22 06:22:32;;;;;;;92.35;42.63;;;-0.20;99.90;;;;;;5037250;28;20028;-86
2021/12/22 06:24:58;;;;;;;95.85;43.28;;;-0.30;99.90;;;;;;5033623;28;20028;-86
2021/12/22 06:27:24;;;;;;;93.72;44.38;;;-0.20;99.90;;;;;;5019848;28;20041;-86
2021/12/22 06:29:49;;;;;;;84.65;39.45;;;-0.10;99.90;;;;;;5037484;28;20029;-86
2021/12/22 06:32:15;;;;;;;85.00;38.88;;;-0.10;99.90;;;;;;5036522;28;20409;-86
2021/12/22 06:34:41;;;;;;;76.00;37.58;;;-0.30;99.90;;;;;;5037162;28;20021;-86
2021/12/22 06:37:06;;;;;;;78.32;37.67;;;-0.30;99.90;;;;;;5035025;28;20497;-86
2021/12/22 06:39:34;;;;;;;82.90;37.00;;;-0.20;99.90;;;;;;5034996;28;20034;-86
2021/12/22 06:42:00;;;;;;;80.22;38.35;;;-0.10;99.90;;;;;;5036747;28;20540;-86
2021/12/22 06:44:25;;;;;;;78.65;37.05;;;-0.10;99.90;;;;;;5036472;28;20481;-86
2021/12/22 06:46:52;;;;;;;73.10;37.60;;;-0.30;99.90;;;;;;5037165;28;20030;-86
2021/12/22 06:49:18;;;;;;;75.55;39.85;;;-0.30;99.90;;;;;;5035786;28;20025;-86
2021/12/22 06:51:44;;;;;;;79.70;39.33;;;-0.30;99.90;;;;;;5032245;28;20481;-86
2021/12/22 06:54:10;;;;;;;72.68;36.47;;;-0.50;99.90;;;;;;5037753;28;20032;-86
2021/12/22 06:56:35;;;;;;;79.57;37.45;;;-0.50;99.90;;;;;;5036755;28;20033;-86
2021/12/22 06:59:01;;;;;;;84.32;35.47;;;-0.40;99.90;;;;;;5036592;28;20490;-86
2021/12/22 07:01:32;;;;;;;73.72;36.17;;;-0.50;99.90;;;;;;5036389;28;20521;-86
2021/12/22 07:03:57;;;;;;;69.75;33.63;;;-0.50;99.90;;;;;;5033387;28;20018;-85
2021/12/22 07:06:23;;;;;;;68.68;32.78;;;-0.30;99.90;;;;;;5036842;28;20037;-87
2021/12/22 07:08:49;;;;;;;85.03;34.17;;;-0.10;99.90;;;;;;5037054;28;20040;-86
2021/12/22 07:11:14;;;;;;;162.93;40.53;;;-0.10;99.90;;;;;;5036284;28;20025;-86
2021/12/22 07:13:40;;;;;;;85.28;38.58;;;-0.10;99.90;;;;;;5016735;28;20057;-86
2021/12/22 07:16:06;;;;;;;73.22;34.47;;;0.00;99.90;;;;;;5034179;28;20030;-86
2021/12/22 07:18:32;;;;;;;72.45;34.75;;;0.20;99.90;;;;;;5016804;28;20029;-86
2021/12/22 07:20:59;;;;;;;70.88;33.67;;;0.20;99.90;;;;;;5037765;28;20040;-86
2021/12/22 07:23:25;;;;;;;67.80;34.45;;;0.00;99.90;;;;;;5036061;28;20481;-86
2021/12/22 07:25:50;;;;;;;70.75;34.83;;;0.00;99.90;;;;;;5036072;28;20040;-84
2021/12/22 07:28:16;;;;;;;114.20;46.10;;;0.00;99.90;;;;;;5035694;28;20033;-85
2021/12/22 07:30:42;;;;;;;75.93;37.05;;;-0.10;99.90;;;;;;5032628;28;20441;-85
2021/12/22 07:33:08;;;;;;;86.43;43.92;;;-0.20;99.90;;;;;;5037091;28;20031;-86
2021/12/22 07:35:42;;;;;;;72.75;35.42;;;-0.10;99.90;;;;;;5035931;28;20026;-85
2021/12/22 07:38:33;;;;;;;76.47;36.08;;;0.10;99.90;;;;;;5035939;28;20029;-87
2021/12/22 07:41:01;;;;;;;70.70;36.63;;;0.10;99.90;;;;;;5035874;28;20022;-83
2021/12/22 07:43:28;;;;;;;76.10;40.58;;;0.20;99.90;;;;;;5035327;28;20028;-84
2021/12/22 07:45:53;;;;;;;77.43;40.75;;;0.40;99.90;;;;;;5032105;28;20032;-85
2021/12/22 07:48:19;;;;;;;81.85;42.92;;;0.70;99.90;;;;;;5037195;28;20041;-84
2021/12/22 07:50:45;;;;;;;79.60;42.50;;;1.10;99.90;;;;;;5034336;28;20025;-84
2021/12/22 07:53:11;;;;;;;71.13;37.63;;;1.50;99.90;;;;;;5034192;28;20033;-85
2021/12/22 07:55:37;;;;;;;73.35;38.70;;;2.40;99.90;;;;;;5037646;28;20029;-93
2021/12/22 07:58:02;;;;;;;76.80;42.08;;;3.40;99.90;;;;;;5046487;28;20049;-88
2021/12/22 08:00:28;;;;;;;72.75;43.10;;;3.10;99.90;;;;;;5034593;28;20044;-84
2021/12/22 08:02:55;;;;;;;69.88;38.65;;;3.80;99.90;;;;;;5036499;28;20041;-83
2021/12/22 08:05:20;;;;;;;61.13;33.67;;;4.00;99.90;;;;;;5035748;28;20033;-85
2021/12/22 08:07:46;;;;;;;65.63;34.30;;;4.10;99.90;;;;;;5033780;28;20047;-84
2021/12/22 08:10:12;;;;;;;62.22;33.25;;;4.60;99.90;;;;;;5032353;28;20554;-85
2021/12/22 08:12:37;;;;;;;61.67;33.03;;;5.60;99.90;;;;;;5015092;28;20037;-87
2021/12/22 08:15:04;;;;;;;62.42;34.25;;;5.40;99.90;;;;;;5035496;28;20025;-85
2021/12/22 08:17:32;;;;;;;62.38;35.10;;;5.80;99.90;;;;;;5035139;28;20021;-84
2021/12/22 08:19:58;;;;;;;61.08;35.50;;;5.60;99.90;;;;;;5034970;28;20021;-85
2021/12/22 08:22:24;;;;;;;64.40;36.15;;;6.80;99.90;;;;;;5036122;28;20068;-93
2021/12/22 08:24:50;;;;;;;100.63;51.58;;;7.90;99.90;;;;;;5030263;28;20435;-89
2021/12/22 08:27:21;;;;;;;85.32;42.28;;;8.60;99.90;;;;;;5043057;28;20044;-85
2021/12/22 08:29:47;;;;;;;102.03;49.33;;;9.50;99.90;;;;;;5035828;28;20037;-85
2021/12/22 08:32:13;;;;;;;84.22;44.95;;;12.00;99.90;;;;;;5017559;28;20025;-86
2021/12/22 08:34:41;;;;;;;58.17;34.47;;;12.20;99.90;;;;;;5035097;28;20041;-87
2021/12/22 08:39:54;;;;;;;59.08;37.97;;;13.90;99.90;;;;;;5015486;28;20180;-85
2021/12/22 08:42:20;;;;;;;52.92;32.97;;;14.40;99.90;;;;;;5036443;28;20029;-85
2021/12/22 08:44:46;;;;;;;45.00;28.58;;;15.30;99.90;;;;;;5034738;28;20033;-89
2021/12/22 08:47:12;;;;;;;47.42;29.90;;;15.10;99.90;;;;;;5034660;28;20453;-87
2021/12/22 08:49:39;;;;;;;45.75;30.20;;;16.00;99.90;;;;;;5035066;28;20025;-86
2021/12/22 08:52:05;;;;;;;41.20;29.50;;;16.20;99.90;;;;;;5032412;28;20037;-86
2021/12/22 08:54:31;;;;;;;41.45;28.63;;;16.40;99.90;;;;;;5033161;28;20021;-86
2021/12/22 08:56:56;;;;;;;43.95;29.58;;;16.40;99.90;;;;;;5035413;28;20382;-86
2021/12/22 08:59:23;;;;;;;40.10;28.45;;;16.70;99.90;;;;;;5031156;28;20068;-83
2021/12/22 09:01:50;;;;;;;41.15;28.50;;;16.80;99.90;;;;;;5030953;28;20049;-85
2021/12/22 09:04:16;;;;;;;48.90;33.67;;;17.10;99.90;;;;;;5028699;28;20404;-83
2021/12/22 09:06:42;;;;;;;51.65;34.42;;;16.90;99.90;;;;;;5030746;28;20032;-86
2021/12/22 09:09:09;;;;;;;38.25;28.58;;;17.30;99.90;;;;;;5032441;28;20036;-89
2021/12/22 09:11:35;;;;;;;39.92;30.23;;;18.10;99.90;;;;;;5013021;28;20397;-85
2021/12/22 09:14:03;;;;;;;41.80;30.50;;;18.40;99.90;;;;;;5030141;28;20025;-91
2021/12/22 09:16:29;;;;;;;43.40;31.08;;;18.60;99.90;;;;;;5011697;28;20112;-87
2021/12/22 09:18:56;;;;;;;41.72;29.42;;;18.70;99.90;;;;;;5029588;28;20426;-88
2021/12/22 09:21:22;;;;;;;38.58;28.75;;;18.40;99.90;;;;;;5032758;28;20025;-88
2021/12/22 09:23:48;;;;;;;36.63;28.05;;;18.80;99.90;;;;;;5013476;28;20033;-86
2021/12/22 09:26:15;;;;;;;39.55;27.83;;;19.10;99.90;;;;;;5031499;28;20113;-87
2021/12/22 09:28:40;;;;;;;35.65;27.40;;;19.60;99.90;;;;;;5030575;28;20489;-87
2021/12/22 09:31:07;;;;;;;38.72;27.15;;;20.10;99.90;;;;;;5032260;28;20095;-87
2021/12/22 09:33:33;;;;;;;37.72;27.20;;;20.20;99.90;;;;;;5031822;28;20102;-85
2021/12/22 09:36:00;;;;;;;39.28;28.00;;;20.00;99.90;;;;;;5036420;28;20022;-89
2021/12/22 09:38:26;;;;;;;38.08;27.98;;;20.00;99.90;;;;;;5024412;28;20037;-89
2021/12/22 09:40:52;;;;;;;36.78;28.88;;;20.00;99.90;;;;;;5028666;28;20066;-87
2021/12/22 09:43:18;;;;;;;34.95;27.20;;;20.20;99.90;;;;;;5049873;28;20024;-89
2021/12/22 09:45:48;;;;;;;39.17;28.08;;;20.90;99.90;;;;;;5016583;28;20033;-87
2021/12/22 09:48:25;;;;;;;37.65;27.02;;;21.50;99.90;;;;;;5039228;28;20048;-88
2021/12/22 09:53:24;;;;;;;37.72;27.75;;;21.90;99.90;;;;;;5038241;28;20378;-88
2021/12/22 09:55:51;;;;;;;38.78;27.02;;;22.20;99.90;;;;;;5020402;28;20116;-86
2021/12/22 09:58:17;;;;;;;33.33;25.40;;;22.30;99.90;;;;;;5036534;28;20100;-92
2021/12/22 10:00:45;;;;;;;36.83;28.10;;;22.30;99.90;;;;;;5000349;28;20587;-96
2021/12/22 10:03:11;;;;;;;35.95;26.75;;;22.30;99.90;;;;;;5039103;28;20034;-88
2021/12/22 10:05:39;;;;;;;34.42;25.05;;;22.70;99.90;;;;;;5024668;28;20449;-88
2021/12/22 10:08:09;;;;;;;34.53;25.75;;;22.70;99.90;;;;;;5041322;28;20065;-88
2021/12/22 10:10:47;;;;;;;36.83;26.77;;;22.70;99.90;;;;;;5019797;28;20071;-88
2021/12/22 10:13:16;;;;;;;33.22;25.35;;;23.40;99.90;;;;;;5036223;28;20098;-88
2021/12/22 10:15:43;;;;;;;33.03;26.40;;;24.70;99.90;;;;;;5034256;28;20142;-88
2021/12/22 10:18:11;;;;;;;31.20;24.05;;;25.20;99.90;;;;;;5039436;28;20551;-88
2021/12/22 10:20:38;;;;;;;29.52;22.55;;;24.90;99.90;;;;;;5037566;28;20022;-89
2021/12/22 10:23:23;;;;;;;28.52;23.40;;;25.00;99.90;;;;;;5032228;28;20112;-87
2021/12/22 10:25:51;;;;;;;35.92;27.70;;;25.10;99.90;;;;;;5031548;28;20108;-83
2021/12/22 10:28:19;;;;;;;32.88;26.13;;;24.80;99.90;;;;;;5029958;28;20041;-84
2021/12/22 10:30:47;;;;;;;35.13;25.67;;;25.40;99.90;;;;;;5032666;28;20021;-87
2021/12/22 10:33:21;;;;;;;29.65;24.33;;;25.40;99.90;;;;;;5033190;28;20386;-85
2021/12/22 10:35:49;;;;;;;26.88;20.60;;;23.90;99.90;;;;;;5031907;28;20043;-86
2021/12/22 10:38:18;;;;;;;30.85;21.98;;;24.40;99.90;;;;;;5029440;28;20029;-84
2021/12/22 10:40:50;;;;;;;26.05;20.60;;;23.80;99.90;;;;;;5032640;28;20029;-86
2021/12/22 10:43:31;;;;;;;28.50;19.88;;;23.60;99.90;;;;;;5030093;28;20026;-87
2021/12/22 10:46:00;;;;;;;26.98;19.95;;;24.30;99.90;;;;;;5031818;28;20560;-84
2021/12/22 10:51:32;;;;;;;26.55;19.92;;;21.90;99.90;;;;;;5029831;28;20056;-86
2021/12/22 10:54:00;;;;;;;24.17;18.67;;;21.30;99.90;;;;;;5032081;28;20121;-86
2021/12/22 10:56:30;;;;;;;24.00;18.92;;;21.20;99.90;;;;;;5031420;28;20033;-88
2021/12/22 10:59:17;;;;;;;23.45;18.95;;;22.20;99.90;;;;;;5018224;28;20025;-85
2021/12/22 11:01:52;;;;;;;24.23;18.05;;;22.00;99.90;;;;;;5030589;28;20041;-89
2021/12/22 11:04:24;;;;;;;24.38;17.60;;;22.00;99.90;;;;;;5011581;28;20498;-87
2021/12/22 11:06:52;;;;;;;24.08;17.58;;;20.80;99.90;;;;;;5030010;28;20553;-84
2021/12/22 11:09:18;;;;;;;21.77;17.05;;;21.60;99.90;;;;;;5045742;28;20068;-82
2021/12/22 11:11:55;;;;;;;26.42;17.95;;;22.70;99.90;;;;;;5036334;28;20643;-85
2021/12/22 11:14:27;;;;;;;21.17;15.85;;;22.50;99.90;;;;;;5036647;28;20385;-84
2021/12/22 11:16:52;;;;;;;22.70;15.70;;;21.60;99.90;;;;;;5016766;28;20458;-85
2021/12/22 11:19:18;;;;;;;22.02;15.68;;;21.30;99.90;;;;;;5035100;28;20044;-86
2021/12/22 11:22:05;;;;;;;21.98;15.35;;;20.20;99.90;;;;;;5032751;28;20040;-89
2021/12/22 11:24:34;;;;;;;21.30;15.55;;;20.30;99.90;;;;;;5046715;28;20504;-84
2021/12/22 11:27:00;;;;;;;20.50;15.07;;;20.70;99.90;;;;;;5035574;28;20029;-85
2021/12/22 11:29:27;;;;;;;18.08;14.23;;;20.10;99.90;;;;;;5036487;28;20037;-84
2021/12/22 11:31:53;;;;;;;18.42;13.65;;;19.90;99.90;;;;;;5033115;28;20483;-85
2021/12/22 11:34:22;;;;;;;22.35;14.95;;;19.00;99.90;;;;;;5026083;28;20033;-87
2021/12/22 11:36:50;;;;;;;22.13;15.57;;;18.90;99.90;;;;;;5029606;28;20566;-86
2021/12/22 11:39:17;;;;;;;21.02;13.77;;;18.20;99.90;;;;;;5034930;28;20033;-85
2021/12/22 11:41:54;;;;;;;19.40;14.35;;;18.70;99.90;;;;;;5035375;28;20025;-95
2021/12/22 11:44:20;;;;;;;19.35;14.00;;;18.90;99.90;;;;;;5016522;28;20026;-86
2021/12/22 11:46:46;;;;;;;18.77;13.98;;;19.10;99.90;;;;;;5032383;28;20033;-89
2021/12/22 11:49:12;;;;;;;18.55;14.32;;;18.60;99.90;;;;;;5030494;28;20563;-91
2021/12/22 11:51:38;;;;;;;22.20;14.93;;;19.40;99.90;;;;;;5031361;28;20131;-82
2021/12/22 11:54:09;;;;;;;21.95;14.68;;;19.30;99.90;;;;;;5033346;28;20041;-83
2021/12/22 11:56:48;;;;;;;20.55;14.00;;;19.80;99.90;;;;;;5031449;28;20029;-85
2021/12/22 11:59:45;;;;;;;19.50;14.75;;;20.20;99.90;;;;;;5029570;28;20037;-86
2021/12/22 12:02:19;;;;;;;25.80;14.98;;;19.50;99.90;;;;;;5007107;28;20108;-84
2021/12/22 12:04:48;;;;;;;19.50;14.70;;;18.80;99.90;;;;;;5029375;28;20104;-93
2021/12/22 12:07:43;;;;;;;21.15;14.65;;;18.50;99.90;;;;;;5028656;28;20545;-83
2021/12/22 12:10:34;;;;;;;20.33;13.85;;;19.60;99.90;;;;;;5031479;28;20028;-84
2021/12/22 12:13:09;;;;;;;18.08;13.73;;;18.80;99.90;;;;;;5029111;28;20025;-85
2021/12/22 12:21:49;;;;;;;19.42;13.70;;;18.90;99.90;;;;;;5019317;28;20041;-85
2021/12/22 12:24:30;;;;;;;17.85;14.45;;;19.70;99.90;;;;;;5032674;28;20474;-85
2021/12/22 12:27:00;;;;;;;18.70;14.18;;;19.80;99.90;;;;;;5031526;28;20034;-83
2021/12/22 12:30:07;;;;;;;22.25;14.63;;;19.80;99.90;;;;;;5029456;28;20037;-84
2021/12/22 12:32:39;;;;;;;18.77;13.75;;;19.40;99.90;;;;;;5030634;28;20037;-82
2021/12/22 12:35:23;;;;;;;21.60;14.52;;;18.20;99.90;;;;;;5029694;28;20035;-87
2021/12/22 12:38:14;;;;;;;18.75;14.77;;;18.50;99.90;;;;;;5028781;28;20084;-85
2021/12/22 12:40:55;;;;;;;19.55;14.43;;;19.30;99.90;;;;;;5021058;28;20464;-86
2021/12/22 12:43:41;;;;;;;22.92;14.55;;;18.80;99.90;;;;;;5011033;28;20486;-86
2021/12/22 12:46:35;;;;;;;20.70;15.45;;;18.70;99.90;;;;;;4931154;29;20044;-87
2021/12/22 12:49:07;;;;;;;22.25;15.43;;;19.40;99.90;;;;;;4916920;29;20498;-88
2021/12/22 12:51:35;;;;;;;19.77;15.50;;;18.30;99.90;;;;;;4945969;29;20051;-90
2021/12/22 12:54:02;;;;;;;31.35;16.85;;;18.00;99.90;;;;;;4937754;29;20028;-87
2021/12/22 12:56:54;;;;;;;21.05;15.68;;;19.00;99.90;;;;;;4933558;28;20516;-87
2021/12/22 12:59:41;;;;;;;22.17;15.13;;;18.70;99.90;;;;;;4894171;29;20047;-84
2021/12/22 13:02:09;;;;;;;24.23;15.32;;;18.30;99.90;;;;;;4893017;29;20457;-84
2021/12/22 13:04:43;;;;;;;20.75;14.73;;;19.10;99.90;;;;;;4893786;29;20040;-84